Time;durP1;ratioP1;P1;durP2;ratioP2;P2;SDS_P1;SDS_P2;PMS_P1;PMS_P2;Temp;Humidity;BMP_temperature;BMP_pressure;BME280_temperature;BME280_humidity;BME280_pressure;Samples;Min_cycle;Max_cycle;Signal;HPM_P1;HPM_P2
2023/11/15 00:02:13;;;;;;;4.13;1.60;;;13.20;99.90;;;;;;5049662;28;20195;-72
2023/11/15 00:04:39;;;;;;;5.00;2.00;;;13.20;99.90;;;;;;5054998;28;20290;-71
2023/11/15 00:07:06;;;;;;;4.90;1.70;;;13.20;99.90;;;;;;5058034;28;20651;-71
2023/11/15 00:09:32;;;;;;;4.13;1.73;;;13.20;99.90;;;;;;5061132;28;20617;-72
2023/11/15 00:11:58;;;;;;;4.77;1.70;;;13.30;99.90;;;;;;5059339;28;20939;-72
2023/11/15 00:14:24;;;;;;;4.93;1.50;;;13.30;99.90;;;;;;5057800;28;20449;-72
2023/11/15 00:16:50;;;;;;;2.63;1.30;;;13.30;99.90;;;;;;5061428;28;20244;-72
2023/11/15 00:19:16;;;;;;;4.17;1.70;;;13.20;99.90;;;;;;5053512;28;20680;-72
2023/11/15 00:21:42;;;;;;;3.33;1.50;;;13.30;99.90;;;;;;5058783;28;20176;-72
2023/11/15 00:24:08;;;;;;;3.60;1.47;;;13.30;99.90;;;;;;5053511;28;20445;-72
2023/11/15 00:26:34;;;;;;;5.60;1.60;;;13.40;99.90;;;;;;5054740;28;20270;-72
2023/11/15 00:28:59;;;;;;;2.77;1.30;;;13.50;99.90;;;;;;5061265;28;20844;-72
2023/11/15 00:31:25;;;;;;;6.20;1.30;;;13.50;99.90;;;;;;5055015;28;20180;-73
2023/11/15 00:33:51;;;;;;;4.13;1.70;;;13.50;99.90;;;;;;5060050;28;20693;-72
2023/11/15 00:36:19;;;;;;;6.53;1.60;;;13.50;99.90;;;;;;5058428;28;20175;-71
2023/11/15 00:38:46;;;;;;;2.30;1.60;;;13.50;99.90;;;;;;5059503;28;20418;-71
2023/11/15 00:41:12;;;;;;;5.70;1.90;;;13.50;99.90;;;;;;5056409;28;20514;-71
2023/11/15 00:43:38;;;;;;;6.07;1.70;;;13.50;99.90;;;;;;5056254;28;20846;-71
2023/11/15 00:46:04;;;;;;;4.97;1.70;;;13.40;99.90;;;;;;5058708;28;20188;-72
2023/11/15 00:48:30;;;;;;;2.40;1.40;;;13.40;99.90;;;;;;5058784;28;21104;-71
2023/11/15 00:50:55;;;;;;;4.97;1.90;;;13.40;99.90;;;;;;5057523;28;20683;-71
2023/11/15 00:53:21;;;;;;;4.13;1.63;;;13.50;99.90;;;;;;5059091;28;22063;-72
2023/11/15 00:55:47;;;;;;;4.90;2.23;;;13.50;99.90;;;;;;5058989;28;20194;-72
2023/11/15 00:58:14;;;;;;;2.70;1.70;;;13.40;99.90;;;;;;5053449;28;20938;-71
2023/11/15 01:00:44;;;;;;;4.17;1.60;;;13.40;99.90;;;;;;5050484;28;20505;-72
2023/11/15 01:03:12;;;;;;;5.77;2.23;;;13.30;99.90;;;;;;5049038;28;20458;-72
2023/11/15 01:05:38;;;;;;;7.57;1.83;;;13.30;99.90;;;;;;5052350;28;20444;-72
2023/11/15 01:08:04;;;;;;;3.87;1.50;;;13.30;99.90;;;;;;5059570;28;20410;-71
2023/11/15 01:10:31;;;;;;;3.30;1.60;;;13.30;99.90;;;;;;5056601;28;20559;-71
2023/11/15 01:12:58;;;;;;;4.30;1.60;;;13.30;99.90;;;;;;5052408;28;20515;-72
2023/11/15 01:15:24;;;;;;;6.60;1.63;;;13.20;99.90;;;;;;5057091;28;20911;-71
2023/11/15 01:17:50;;;;;;;4.17;1.63;;;13.20;99.90;;;;;;5057301;28;20440;-71
2023/11/15 01:20:16;;;;;;;4.93;1.50;;;13.20;99.90;;;;;;5056872;28;20479;-71
2023/11/15 01:22:42;;;;;;;3.77;2.30;;;13.30;99.90;;;;;;5060501;28;20445;-71
2023/11/15 01:25:08;;;;;;;3.60;1.60;;;13.20;99.90;;;;;;5061726;28;20179;-72
2023/11/15 01:27:35;;;;;;;5.80;1.60;;;13.20;99.90;;;;;;5058868;28;20628;-71
2023/11/15 01:30:01;;;;;;;5.33;1.73;;;13.20;99.90;;;;;;5060318;28;20425;-71
2023/11/15 01:32:26;;;;;;;5.43;1.50;;;13.10;99.90;;;;;;5057119;28;20413;-71
2023/11/15 01:34:52;;;;;;;3.93;1.50;;;13.20;99.90;;;;;;5054057;28;20219;-71
2023/11/15 01:37:18;;;;;;;5.70;1.90;;;13.20;99.90;;;;;;5058474;28;20580;-72
2023/11/15 01:39:44;;;;;;;8.83;1.93;;;13.10;99.90;;;;;;5060764;28;20192;-71
2023/11/15 01:42:11;;;;;;;4.03;1.80;;;12.90;99.90;;;;;;5057522;28;20424;-71
2023/11/15 01:44:37;;;;;;;4.67;1.70;;;12.90;99.90;;;;;;5057836;28;20175;-71
2023/11/15 01:47:04;;;;;;;4.50;1.70;;;13.00;99.90;;;;;;5060494;28;20428;-71
2023/11/15 01:49:30;;;;;;;4.60;1.70;;;13.00;99.90;;;;;;5054087;28;20180;-71
2023/11/15 01:51:56;;;;;;;5.20;1.60;;;12.90;99.90;;;;;;5055195;28;20961;-71
2023/11/15 01:54:22;;;;;;;6.70;2.87;;;12.90;99.90;;;;;;5058130;28;20297;-71
2023/11/15 01:56:48;;;;;;;3.43;1.50;;;12.90;99.90;;;;;;5054390;28;20190;-72
2023/11/15 01:59:14;;;;;;;7.27;2.10;;;12.90;99.90;;;;;;5056607;28;20461;-71
2023/11/15 02:01:41;;;;;;;8.80;2.33;;;13.00;99.90;;;;;;5048779;28;20190;-71
2023/11/15 02:04:08;;;;;;;3.90;1.50;;;13.00;99.90;;;;;;5051902;28;20200;-72
2023/11/15 02:06:35;;;;;;;7.53;1.70;;;12.90;99.90;;;;;;5055954;28;20416;-71
2023/11/15 02:09:02;;;;;;;3.87;1.93;;;13.00;99.90;;;;;;5063641;28;20498;-71
2023/11/15 02:11:28;;;;;;;3.87;1.90;;;12.90;99.90;;;;;;5060340;28;20534;-72
2023/11/15 02:13:54;;;;;;;4.70;1.97;;;12.90;99.90;;;;;;5058926;28;20438;-72
2023/11/15 02:16:21;;;;;;;3.80;2.00;;;12.90;99.90;;;;;;5071403;28;20420;-72
2023/11/15 02:18:47;;;;;;;3.50;1.80;;;12.90;99.90;;;;;;5065259;28;20906;-72
2023/11/15 02:21:13;;;;;;;4.93;2.23;;;12.80;99.90;;;;;;5057093;28;20465;-72
2023/11/15 02:23:45;;;;;;;4.63;2.10;;;12.90;99.90;;;;;;5057796;28;20444;-72
2023/11/15 02:26:12;;;;;;;4.90;1.63;;;12.90;99.90;;;;;;5059845;28;20183;-72
2023/11/15 02:28:38;;;;;;;5.63;3.10;;;12.90;99.90;;;;;;5065602;28;20413;-72
2023/11/15 02:31:05;;;;;;;3.90;2.00;;;12.90;99.90;;;;;;5061394;28;20822;-72
2023/11/15 02:33:31;;;;;;;4.13;1.70;;;12.90;99.90;;;;;;5060731;28;20434;-71
2023/11/15 02:35:56;;;;;;;5.30;2.20;;;12.80;99.90;;;;;;5059633;28;20537;-71
2023/11/15 02:38:22;;;;;;;5.77;1.80;;;12.80;99.90;;;;;;5063886;28;20183;-71
2023/11/15 02:40:48;;;;;;;4.83;1.90;;;12.80;99.90;;;;;;5060264;28;20242;-71
2023/11/15 02:43:14;;;;;;;6.63;1.80;;;12.80;99.90;;;;;;5061977;28;20469;-71
2023/11/15 02:45:40;;;;;;;3.40;1.80;;;12.80;99.90;;;;;;5063829;28;20179;-71
2023/11/15 02:48:05;;;;;;;3.60;1.57;;;12.80;99.90;;;;;;5065061;28;20202;-72
2023/11/15 02:50:31;;;;;;;5.03;2.10;;;12.90;99.90;;;;;;5062946;28;20418;-72
2023/11/15 02:52:57;;;;;;;4.57;1.90;;;12.90;99.90;;;;;;5059193;28;20302;-72
2023/11/15 02:55:23;;;;;;;5.77;1.73;;;12.90;99.90;;;;;;5057113;28;20184;-71
2023/11/15 02:57:49;;;;;;;8.17;1.97;;;12.90;99.90;;;;;;5057908;28;20486;-71
2023/11/15 03:00:16;;;;;;;6.60;1.93;;;12.80;99.90;;;;;;5057859;28;20837;-71
2023/11/15 03:02:42;;;;;;;5.93;1.80;;;12.80;99.90;;;;;;5049856;28;20669;-71
2023/11/15 03:05:09;;;;;;;5.10;2.10;;;12.70;99.90;;;;;;5055786;28;20492;-71
2023/11/15 03:07:35;;;;;;;3.30;1.60;;;12.70;99.90;;;;;;5058120;28;20756;-72
2023/11/15 03:10:00;;;;;;;3.40;1.50;;;12.60;99.90;;;;;;5059008;28;20464;-70
2023/11/15 03:12:26;;;;;;;4.80;1.97;;;12.70;99.90;;;;;;5055813;28;20187;-71
2023/11/15 03:14:52;;;;;;;3.73;1.80;;;12.70;99.90;;;;;;5058693;28;20633;-71
2023/11/15 03:17:18;;;;;;;8.10;2.50;;;12.70;99.90;;;;;;5062021;28;20261;-71
2023/11/15 03:19:45;;;;;;;4.17;2.00;;;12.70;99.90;;;;;;5057148;28;20673;-71
2023/11/15 03:22:14;;;;;;;4.30;2.10;;;12.60;99.90;;;;;;5063546;28;21588;-72
2023/11/15 03:24:40;;;;;;;4.30;2.17;;;12.60;99.90;;;;;;5060436;28;20422;-72
2023/11/15 03:27:06;;;;;;;5.27;1.60;;;12.70;99.90;;;;;;5055641;28;20886;-71
2023/11/15 03:29:32;;;;;;;5.37;1.90;;;12.70;99.90;;;;;;5061025;28;20266;-71
2023/11/15 03:31:58;;;;;;;7.10;2.33;;;12.70;99.90;;;;;;5060537;28;20789;-71
2023/11/15 03:34:24;;;;;;;5.70;2.30;;;12.70;99.90;;;;;;5058604;28;20452;-71
2023/11/15 03:36:50;;;;;;;5.37;2.07;;;12.70;99.90;;;;;;5059117;28;20194;-71
2023/11/15 03:39:19;;;;;;;6.17;2.63;;;12.70;99.90;;;;;;5058469;28;20876;-71
2023/11/15 03:41:45;;;;;;;9.00;2.40;;;12.70;99.90;;;;;;5058678;28;20445;-71
2023/11/15 03:44:10;;;;;;;8.07;3.77;;;12.70;99.90;;;;;;5058302;28;20793;-71
2023/11/15 03:46:36;;;;;;;7.30;2.10;;;12.80;99.90;;;;;;5060127;28;20218;-71
2023/11/15 03:49:02;;;;;;;7.93;2.77;;;12.80;99.90;;;;;;5062341;28;20175;-71
2023/11/15 03:51:27;;;;;;;9.23;1.97;;;12.60;99.90;;;;;;5056828;28;20176;-71
2023/11/15 03:53:53;;;;;;;4.43;2.00;;;12.70;99.90;;;;;;5060340;28;20483;-72
2023/11/15 03:56:18;;;;;;;5.33;1.93;;;12.70;99.90;;;;;;5062411;28;20183;-72
2023/11/15 03:58:44;;;;;;;4.70;1.90;;;12.70;99.90;;;;;;5059215;28;20270;-71
2023/11/15 04:01:09;;;;;;;10.10;2.00;;;12.70;99.90;;;;;;5049768;28;20208;-71
2023/11/15 04:03:35;;;;;;;10.27;2.60;;;12.70;99.90;;;;;;5055133;28;20226;-72
2023/11/15 04:06:03;;;;;;;5.30;2.20;;;12.70;99.90;;;;;;5056633;28;20175;-72
2023/11/15 04:08:29;;;;;;;7.60;2.37;;;12.70;99.90;;;;;;5055456;28;20191;-72
2023/11/15 04:10:55;;;;;;;8.90;2.47;;;12.70;99.90;;;;;;5057388;28;20816;-72
2023/11/15 04:13:21;;;;;;;9.57;2.53;;;12.70;99.90;;;;;;5061700;28;20211;-72
2023/11/15 04:15:50;;;;;;;6.33;2.30;;;12.70;99.90;;;;;;5056180;28;20195;-72
2023/11/15 04:18:15;;;;;;;8.20;2.73;;;12.70;99.90;;;;;;5057777;28;20726;-72
2023/11/15 04:20:41;;;;;;;8.57;2.67;;;12.70;99.90;;;;;;5057312;28;20474;-72
2023/11/15 04:23:07;;;;;;;5.80;2.00;;;12.70;99.90;;;;;;5057158;28;20756;-72
2023/11/15 04:25:32;;;;;;;4.23;1.93;;;12.80;99.90;;;;;;5055664;28;20184;-72
2023/11/15 04:27:58;;;;;;;8.93;2.27;;;12.80;99.90;;;;;;5059339;28;20190;-72
2023/11/15 04:30:26;;;;;;;5.90;2.73;;;12.60;99.90;;;;;;5057851;28;20195;-72
2023/11/15 04:32:52;;;;;;;5.70;2.03;;;12.60;99.90;;;;;;5058462;28;20234;-72
2023/11/15 04:35:17;;;;;;;5.57;2.50;;;12.60;99.90;;;;;;5061343;28;20454;-72
2023/11/15 04:37:43;;;;;;;11.30;2.80;;;12.50;99.90;;;;;;5055225;28;20468;-72
2023/11/15 04:40:10;;;;;;;6.07;2.10;;;12.40;99.90;;;;;;5060821;28;20215;-72
2023/11/15 04:42:36;;;;;;;12.33;2.40;;;12.40;99.90;;;;;;5064966;28;20195;-72
2023/11/15 04:45:02;;;;;;;9.93;2.70;;;12.40;99.90;;;;;;5062215;28;20436;-72
2023/11/15 04:47:28;;;;;;;7.10;2.57;;;12.30;99.90;;;;;;5056286;28;20842;-72
2023/11/15 04:49:53;;;;;;;5.00;2.60;;;12.30;99.90;;;;;;5058156;28;20438;-72
2023/11/15 04:52:19;;;;;;;13.77;3.03;;;12.30;99.90;;;;;;5056441;28;20195;-72
2023/11/15 04:54:45;;;;;;;7.10;2.57;;;12.30;99.90;;;;;;5055228;28;20533;-72
2023/11/15 04:57:11;;;;;;;7.73;2.40;;;12.40;99.90;;;;;;5055894;28;20236;-72
2023/11/15 04:59:37;;;;;;;8.13;2.33;;;12.40;99.90;;;;;;5053857;28;20462;-72
2023/11/15 05:02:03;;;;;;;8.17;2.27;;;12.40;99.90;;;;;;5050105;28;20206;-72
2023/11/15 05:04:29;;;;;;;15.20;2.87;;;12.40;99.90;;;;;;5053949;28;20574;-72
2023/11/15 05:06:54;;;;;;;11.53;3.03;;;12.40;99.90;;;;;;5055113;28;20515;-72
2023/11/15 05:09:22;;;;;;;11.87;2.60;;;12.40;99.90;;;;;;5058991;28;20189;-72
2023/11/15 05:11:48;;;;;;;12.37;2.40;;;12.40;99.90;;;;;;5059420;28;20183;-72
2023/11/15 05:14:13;;;;;;;10.87;2.43;;;12.40;99.90;;;;;;5062000;28;20474;-72
2023/11/15 05:16:39;;;;;;;9.10;2.43;;;12.30;99.90;;;;;;5059548;28;20976;-72
2023/11/15 05:19:05;;;;;;;7.97;2.70;;;12.30;99.90;;;;;;5059542;28;20184;-72
2023/11/15 05:21:30;;;;;;;9.33;2.60;;;12.30;99.90;;;;;;5060152;28;20202;-72
2023/11/15 05:23:56;;;;;;;7.10;2.60;;;12.30;99.90;;;;;;5059791;28;20327;-72
2023/11/15 05:26:22;;;;;;;4.50;1.90;;;12.30;99.90;;;;;;5058639;28;20202;-72
2023/11/15 05:28:49;;;;;;;7.00;2.40;;;12.40;99.90;;;;;;5061081;28;20417;-72
2023/11/15 05:31:15;;;;;;;7.40;2.63;;;12.30;99.90;;;;;;5052301;28;20917;-72
2023/11/15 05:33:41;;;;;;;7.60;2.97;;;12.30;99.90;;;;;;5056209;28;20457;-72
2023/11/15 05:36:07;;;;;;;7.77;2.20;;;12.30;99.90;;;;;;5051770;28;20425;-72
2023/11/15 05:38:33;;;;;;;6.80;2.50;;;12.20;99.90;;;;;;5058534;28;20514;-72
2023/11/15 05:40:59;;;;;;;7.37;2.50;;;12.20;99.90;;;;;;5057184;28;20556;-72
2023/11/15 05:43:24;;;;;;;6.60;2.03;;;12.20;99.90;;;;;;5059562;28;20445;-72
2023/11/15 05:45:50;;;;;;;4.50;2.13;;;12.20;99.90;;;;;;5063648;28;20254;-72
2023/11/15 05:48:15;;;;;;;5.50;2.20;;;12.10;99.90;;;;;;5068787;28;20179;-72
2023/11/15 05:50:41;;;;;;;4.43;1.97;;;12.00;99.90;;;;;;5061617;28;20677;-72
2023/11/15 05:53:08;;;;;;;8.23;2.00;;;12.00;99.90;;;;;;5063111;28;20221;-71
2023/11/15 05:55:33;;;;;;;4.90;2.00;;;11.90;99.90;;;;;;5060109;28;20185;-72
2023/11/15 05:57:59;;;;;;;8.70;2.70;;;11.90;99.90;;;;;;5055853;28;20884;-72
2023/11/15 06:00:24;;;;;;;6.50;2.60;;;11.90;99.90;;;;;;5061215;28;20571;-72
2023/11/15 06:02:51;;;;;;;6.37;2.43;;;11.90;99.90;;;;;;5051377;28;20669;-72
2023/11/15 06:05:18;;;;;;;9.23;2.80;;;11.90;99.90;;;;;;5057306;28;20180;-72
2023/11/15 06:07:44;;;;;;;7.43;2.10;;;11.80;99.90;;;;;;5060844;28;20414;-72
2023/11/15 06:10:11;;;;;;;6.43;2.83;;;11.80;99.90;;;;;;5059223;28;20476;-72
2023/11/15 06:12:38;;;;;;;5.77;2.43;;;11.80;99.90;;;;;;5058115;28;20454;-72
2023/11/15 06:15:05;;;;;;;7.10;3.10;;;11.90;99.90;;;;;;5058453;28;20441;-73
2023/11/15 06:17:31;;;;;;;12.27;3.20;;;11.80;99.90;;;;;;5062139;28;20500;-72
2023/11/15 06:19:57;;;;;;;7.53;2.60;;;11.80;99.90;;;;;;5063694;28;20547;-72
2023/11/15 06:22:23;;;;;;;8.47;2.50;;;11.80;99.90;;;;;;5056570;28;20168;-72
2023/11/15 06:24:52;;;;;;;8.63;3.90;;;11.80;99.90;;;;;;5061985;28;20755;-71
2023/11/15 06:27:19;;;;;;;7.43;2.13;;;11.80;99.90;;;;;;5064297;28;20418;-71
2023/11/15 06:29:48;;;;;;;6.47;2.10;;;11.80;99.90;;;;;;5063109;28;20458;-71
2023/11/15 06:32:15;;;;;;;6.40;3.30;;;11.80;99.90;;;;;;5064935;28;20540;-71
2023/11/15 06:34:44;;;;;;;8.33;2.83;;;11.80;99.90;;;;;;5062169;28;20422;-71
2023/11/15 06:37:13;;;;;;;5.67;2.30;;;11.80;99.90;;;;;;5059622;28;20557;-71
2023/11/15 06:39:41;;;;;;;7.40;2.20;;;11.90;99.90;;;;;;5059158;28;20595;-71
2023/11/15 06:42:06;;;;;;;8.40;3.20;;;11.90;99.90;;;;;;5063155;28;20839;-71
2023/11/15 06:44:33;;;;;;;8.57;3.20;;;11.90;99.90;;;;;;5061855;28;20480;-71
2023/11/15 06:47:00;;;;;;;12.27;2.17;;;12.00;99.90;;;;;;5063004;28;20198;-71
2023/11/15 06:49:27;;;;;;;6.17;2.67;;;11.90;99.90;;;;;;5065542;28;20801;-71
2023/11/15 06:51:52;;;;;;;10.00;3.33;;;11.80;99.90;;;;;;5063799;28;20453;-71
2023/11/15 06:54:18;;;;;;;12.97;2.93;;;11.90;99.90;;;;;;5057831;28;20485;-71
2023/11/15 06:56:44;;;;;;;6.70;2.83;;;11.90;99.90;;;;;;5063885;28;20229;-71
2023/11/15 06:59:10;;;;;;;8.70;2.93;;;12.00;99.90;;;;;;5057447;28;20215;-71
2023/11/15 07:01:36;;;;;;;7.40;2.60;;;11.90;99.90;;;;;;5050853;28;20583;-71
2023/11/15 07:04:02;;;;;;;9.37;2.73;;;12.00;99.90;;;;;;5057605;28;20203;-71
2023/11/15 07:06:27;;;;;;;7.03;3.23;;;12.00;99.90;;;;;;5063100;28;20391;-72
2023/11/15 07:08:53;;;;;;;7.70;3.00;;;12.10;99.90;;;;;;5061550;28;20419;-72
2023/11/15 07:11:20;;;;;;;6.83;3.20;;;12.00;99.90;;;;;;5056901;28;21245;-72
2023/11/15 07:13:45;;;;;;;6.83;2.30;;;12.10;99.90;;;;;;5053380;28;20213;-71
2023/11/15 07:16:12;;;;;;;13.43;2.73;;;12.20;99.90;;;;;;5050258;28;20505;-71
2023/11/15 07:18:38;;;;;;;7.03;3.17;;;12.10;99.90;;;;;;5052584;28;20175;-72
2023/11/15 07:21:04;;;;;;;10.77;3.07;;;12.10;99.90;;;;;;5050028;28;20994;-71
2023/11/15 07:23:30;;;;;;;7.93;3.00;;;12.20;99.90;;;;;;5053011;28;20442;-71
2023/11/15 07:25:55;;;;;;;11.03;2.83;;;12.20;99.90;;;;;;5053133;28;20572;-71
2023/11/15 07:28:23;;;;;;;8.00;2.50;;;12.20;99.90;;;;;;5050577;28;20218;-71
2023/11/15 07:30:50;;;;;;;7.97;2.70;;;12.10;99.90;;;;;;5054002;28;20179;-71
2023/11/15 07:33:19;;;;;;;8.23;2.80;;;12.20;99.90;;;;;;5053509;28;20840;-72
2023/11/15 07:35:46;;;;;;;8.27;2.87;;;12.20;99.90;;;;;;5055594;28;20431;-72
2023/11/15 07:38:12;;;;;;;5.73;2.67;;;12.20;99.90;;;;;;5056740;28;20520;-73
2023/11/15 07:40:38;;;;;;;6.77;2.13;;;12.30;99.90;;;;;;5060491;28;20458;-72
2023/11/15 07:43:05;;;;;;;9.63;3.07;;;12.30;99.90;;;;;;5052453;28;20495;-73
2023/11/15 07:45:35;;;;;;;5.80;3.33;;;12.40;99.90;;;;;;5057301;28;20195;-73
2023/11/15 07:48:01;;;;;;;6.67;2.67;;;12.40;99.90;;;;;;5055479;28;20430;-73
2023/11/15 07:50:28;;;;;;;5.50;2.40;;;12.30;99.90;;;;;;5059361;28;20828;-72
2023/11/15 07:52:53;;;;;;;8.83;3.20;;;12.40;99.90;;;;;;5054033;28;20515;-72
2023/11/15 07:55:19;;;;;;;5.70;2.83;;;12.50;99.90;;;;;;5062315;28;20410;-71
2023/11/15 07:57:44;;;;;;;8.57;3.07;;;12.50;99.90;;;;;;5057607;28;20208;-71
2023/11/15 08:00:11;;;;;;;11.03;3.10;;;12.50;99.90;;;;;;5060362;28;20199;-71
2023/11/15 08:02:37;;;;;;;7.33;3.00;;;12.50;99.90;;;;;;5049149;28;20187;-71
2023/11/15 08:05:07;;;;;;;7.27;2.70;;;12.40;99.90;;;;;;5057362;28;20425;-71
2023/11/15 08:07:34;;;;;;;10.97;2.80;;;12.50;99.90;;;;;;5055259;28;20419;-71
2023/11/15 08:10:00;;;;;;;7.87;3.10;;;12.50;99.90;;;;;;5057750;28;20467;-71
2023/11/15 08:12:27;;;;;;;13.73;3.00;;;12.50;99.90;;;;;;5062162;28;20409;-71
2023/11/15 08:14:52;;;;;;;10.57;2.47;;;12.50;99.90;;;;;;5055454;28;20224;-71
2023/11/15 08:17:18;;;;;;;13.13;4.50;;;12.50;99.90;;;;;;5054663;28;20964;-71
2023/11/15 08:19:44;;;;;;;6.90;2.97;;;12.50;99.90;;;;;;5057341;28;20269;-71
2023/11/15 08:22:10;;;;;;;10.43;3.17;;;12.50;99.90;;;;;;5056615;28;20259;-71
2023/11/15 08:24:36;;;;;;;7.60;2.43;;;12.70;99.90;;;;;;5060575;28;20410;-71
2023/11/15 08:27:03;;;;;;;7.70;2.37;;;12.60;99.90;;;;;;5057179;28;20429;-71
2023/11/15 08:29:29;;;;;;;6.63;2.73;;;12.70;99.90;;;;;;5061634;28;20209;-71
2023/11/15 08:31:54;;;;;;;8.53;2.70;;;12.70;99.90;;;;;;5056288;28;20862;-72
2023/11/15 08:34:20;;;;;;;6.73;2.97;;;12.80;99.90;;;;;;5058488;28;20256;-71
2023/11/15 08:36:45;;;;;;;11.40;3.00;;;12.80;99.90;;;;;;5058779;28;20869;-71
2023/11/15 08:39:12;;;;;;;6.57;2.90;;;12.90;99.90;;;;;;5062389;28;20194;-71
2023/11/15 08:41:40;;;;;;;12.90;3.43;;;12.80;99.90;;;;;;5059743;28;20171;-72
2023/11/15 08:44:06;;;;;;;9.10;2.70;;;12.90;99.90;;;;;;5059551;28;20453;-71
2023/11/15 08:46:33;;;;;;;6.30;3.17;;;12.80;99.90;;;;;;5056252;28;20444;-71
2023/11/15 08:49:00;;;;;;;9.43;3.77;;;12.80;99.90;;;;;;5055763;28;20441;-71
2023/11/15 08:51:26;;;;;;;10.70;2.97;;;12.90;99.90;;;;;;5057535;28;20786;-71
2023/11/15 08:53:51;;;;;;;8.03;2.50;;;12.90;99.90;;;;;;5054853;28;20465;-72
2023/11/15 08:56:18;;;;;;;5.30;2.50;;;12.90;99.90;;;;;;5058177;28;20270;-72
2023/11/15 08:58:44;;;;;;;7.57;2.87;;;13.00;99.90;;;;;;5058282;28;20179;-72
2023/11/15 09:01:10;;;;;;;6.07;2.47;;;12.90;99.90;;;;;;5054865;28;20470;-72
2023/11/15 09:03:39;;;;;;;7.50;3.23;;;12.80;99.90;;;;;;5056368;28;20195;-72
2023/11/15 09:06:05;;;;;;;5.77;2.57;;;12.80;99.90;;;;;;5058710;28;20185;-72
2023/11/15 09:08:31;;;;;;;8.80;2.70;;;12.80;99.90;;;;;;5057920;28;20432;-71
2023/11/15 09:10:56;;;;;;;4.80;2.13;;;12.80;99.90;;;;;;5060815;28;20417;-71
2023/11/15 09:13:23;;;;;;;8.90;2.50;;;12.80;99.90;;;;;;5054850;28;20516;-71
2023/11/15 09:15:52;;;;;;;5.63;2.20;;;12.80;99.90;;;;;;5053606;28;20176;-71
2023/11/15 09:18:23;;;;;;;5.90;2.27;;;12.70;99.90;;;;;;5055290;28;20409;-71
2023/11/15 09:20:49;;;;;;;10.57;2.67;;;12.80;99.90;;;;;;5057550;28;20842;-72
2023/11/15 09:23:16;;;;;;;9.13;2.60;;;12.80;99.90;;;;;;5053888;28;20452;-71
2023/11/15 09:25:42;;;;;;;7.53;3.13;;;13.00;99.90;;;;;;5054617;28;20784;-71
2023/11/15 09:28:10;;;;;;;8.10;2.60;;;13.20;99.90;;;;;;5059159;28;20421;-72
2023/11/15 09:30:36;;;;;;;14.20;3.17;;;13.20;99.90;;;;;;5054938;28;20619;-72
2023/11/15 09:33:05;;;;;;;9.93;2.77;;;13.10;99.90;;;;;;5052233;28;20532;-72
2023/11/15 09:35:31;;;;;;;5.80;2.60;;;13.10;99.90;;;;;;5052942;28;20220;-72
2023/11/15 09:37:58;;;;;;;9.73;2.70;;;13.10;99.90;;;;;;5052900;28;20837;-72
2023/11/15 09:40:25;;;;;;;7.97;2.77;;;13.10;99.90;;;;;;5055489;28;20564;-72
2023/11/15 09:42:52;;;;;;;7.03;2.97;;;13.10;99.90;;;;;;5051626;28;20854;-72
2023/11/15 09:45:19;;;;;;;8.63;3.50;;;13.20;99.90;;;;;;5051774;28;20425;-72
2023/11/15 09:47:58;;;;;;;4.43;2.30;;;13.10;99.90;;;;;;5055122;28;20412;-72
2023/11/15 09:50:26;;;;;;;7.27;2.77;;;13.10;99.90;;;;;;5047634;28;20975;-73
2023/11/15 09:52:55;;;;;;;13.53;3.00;;;13.10;99.90;;;;;;5056713;28;20460;-72
2023/11/15 09:55:26;;;;;;;6.23;2.87;;;13.10;99.90;;;;;;5055036;28;20480;-72
2023/11/15 09:57:53;;;;;;;10.00;3.20;;;13.10;99.90;;;;;;5052507;28;20487;-72
2023/11/15 10:00:20;;;;;;;7.77;2.90;;;13.20;99.90;;;;;;5053313;28;20913;-72
2023/11/15 10:02:46;;;;;;;7.27;2.53;;;13.20;99.90;;;;;;5050023;28;20440;-72
2023/11/15 10:05:30;;;;;;;11.63;3.17;;;13.30;99.90;;;;;;5059202;28;20438;-72
2023/11/15 10:08:10;;;;;;;7.60;2.50;;;13.30;99.90;;;;;;5053880;28;20433;-72
2023/11/15 10:10:40;;;;;;;5.63;2.67;;;13.20;99.90;;;;;;5060531;28;20412;-72
2023/11/15 10:13:14;;;;;;;7.93;3.03;;;13.20;99.90;;;;;;5053913;28;20445;-72
2023/11/15 10:15:43;;;;;;;7.67;2.50;;;13.20;99.90;;;;;;5059386;28;20496;-73
2023/11/15 10:18:14;;;;;;;9.50;2.63;;;13.10;99.90;;;;;;5054327;28;20441;-73
2023/11/15 10:20:41;;;;;;;10.63;3.20;;;13.10;99.90;;;;;;5053177;28;20506;-72
2023/11/15 10:23:07;;;;;;;6.30;2.87;;;13.10;99.90;;;;;;5055043;28;20433;-73
2023/11/15 10:25:50;;;;;;;10.43;3.27;;;13.00;99.90;;;;;;5055114;28;20422;-73
2023/11/15 10:28:21;;;;;;;9.20;2.93;;;13.10;99.90;;;;;;5054280;28;20938;-73
2023/11/15 10:31:18;;;;;;;7.60;2.83;;;13.20;99.90;;;;;;5057624;28;20471;-72
2023/11/15 10:33:49;;;;;;;8.00;3.67;;;13.10;99.90;;;;;;5057003;28;20457;-73
2023/11/15 10:36:19;;;;;;;10.00;2.80;;;13.20;99.90;;;;;;5058805;28;20869;-73
2023/11/15 10:38:55;;;;;;;6.57;3.00;;;13.30;99.90;;;;;;5056769;28;20458;-73
2023/11/15 10:41:22;;;;;;;10.20;3.70;;;13.30;99.90;;;;;;5057149;28;20469;-73
2023/11/15 10:43:50;;;;;;;13.63;3.07;;;13.20;99.90;;;;;;5056537;28;20517;-72
2023/11/15 10:46:21;;;;;;;10.97;3.07;;;13.20;99.90;;;;;;5057940;28;20417;-72
2023/11/15 10:48:49;;;;;;;11.40;3.27;;;13.10;99.90;;;;;;5054962;28;20430;-73
2023/11/15 10:51:20;;;;;;;7.20;2.70;;;13.20;99.90;;;;;;5055620;28;20514;-72
2023/11/15 10:53:46;;;;;;;6.63;3.10;;;13.20;99.90;;;;;;5058592;28;20461;-73
2023/11/15 10:56:16;;;;;;;10.60;3.30;;;13.30;99.90;;;;;;5057254;28;20625;-72
2023/11/15 10:58:47;;;;;;;7.23;2.67;;;13.30;99.90;;;;;;5055374;28;20421;-73
2023/11/15 11:01:17;;;;;;;13.43;3.27;;;13.50;99.90;;;;;;5050873;28;20470;-73
2023/11/15 11:03:52;;;;;;;8.13;2.70;;;13.50;99.90;;;;;;5056003;28;20610;-72
2023/11/15 11:06:34;;;;;;;8.23;2.33;;;13.50;99.90;;;;;;5056881;28;22735;-72
2023/11/15 11:09:22;;;;;;;6.87;2.73;;;13.60;99.90;;;;;;5059463;28;20437;-72
2023/11/15 11:12:05;;;;;;;9.93;2.77;;;13.80;99.90;;;;;;5056835;28;20423;-72
2023/11/15 11:14:31;;;;;;;7.80;2.40;;;13.80;99.90;;;;;;5059172;28;20451;-73
2023/11/15 11:16:58;;;;;;;7.10;2.47;;;13.80;99.90;;;;;;5053488;28;20433;-72
2023/11/15 11:19:28;;;;;;;11.27;2.73;;;13.90;99.90;;;;;;5058669;28;20416;-72
2023/11/15 11:24:25;;;;;;;5.20;2.53;;;14.00;99.90;;;;;;5056132;28;20459;-72
2023/11/15 11:26:52;;;;;;;5.57;2.70;;;14.10;99.90;;;;;;5057880;28;20943;-73
2023/11/15 11:29:18;;;;;;;6.47;2.00;;;14.10;99.90;;;;;;5058212;28;20176;-73
2023/11/15 11:32:31;;;;;;;7.17;2.33;;;13.90;99.90;;;;;;5057204;28;20421;-73
2023/11/15 11:35:13;;;;;;;8.30;2.10;;;13.80;99.90;;;;;;5057350;28;20204;-73
2023/11/15 11:37:44;;;;;;;11.10;2.40;;;13.80;99.90;;;;;;5058285;28;20421;-73
2023/11/15 11:40:49;;;;;;;4.67;2.10;;;13.80;99.90;;;;;;5057114;28;20522;-72
2023/11/15 11:43:22;;;;;;;8.37;2.63;;;13.80;99.90;;;;;;4962250;28;20503;-73
2023/11/15 11:45:50;;;;;;;14.07;2.80;;;13.60;99.90;;;;;;4972084;28;20440;-73
2023/11/15 11:48:37;;;;;;;9.00;2.30;;;13.50;99.90;;;;;;5015940;28;20470;-73
2023/11/15 11:51:05;;;;;;;6.70;2.63;;;13.60;99.90;;;;;;5058544;28;20425;-73
2023/11/15 11:53:42;;;;;;;7.10;2.37;;;13.50;99.90;;;;;;5056058;28;20462;-73
2023/11/15 11:56:09;;;;;;;7.57;3.30;;;13.40;99.90;;;;;;5059225;28;20445;-73
2023/11/15 11:58:36;;;;;;;7.10;2.47;;;13.40;99.90;;;;;;5060088;28;20434;-73
2023/11/15 12:01:10;;;;;;;7.20;2.40;;;13.40;99.90;;;;;;5048149;28;20477;-72
2023/11/15 12:03:39;;;;;;;8.03;2.00;;;13.40;99.90;;;;;;5053541;28;20453;-73
2023/11/15 12:06:10;;;;;;;7.97;2.50;;;13.20;99.90;;;;;;5054209;28;20430;-73
2023/11/15 12:08:38;;;;;;;4.57;2.00;;;13.10;99.90;;;;;;5057954;28;20422;-73
2023/11/15 12:11:05;;;;;;;8.40;2.40;;;13.10;99.90;;;;;;5057053;28;20436;-73
2023/11/15 12:13:47;;;;;;;14.43;2.73;;;13.00;99.90;;;;;;5053270;28;20451;-73
2023/11/15 12:16:23;;;;;;;6.83;2.40;;;13.00;99.90;;;;;;5054649;28;20445;-73
2023/11/15 12:19:05;;;;;;;6.90;2.23;;;13.00;99.90;;;;;;5052758;28;20452;-73
2023/11/15 12:21:35;;;;;;;11.20;4.20;;;13.20;99.90;;;;;;5056958;28;20497;-73
2023/11/15 12:24:04;;;;;;;6.60;2.20;;;13.30;99.90;;;;;;5058627;28;20444;-72
2023/11/15 12:26:48;;;;;;;4.70;2.03;;;13.30;99.90;;;;;;5059117;28;20471;-73
2023/11/15 12:29:24;;;;;;;3.77;1.97;;;13.30;99.90;;;;;;5055430;28;20433;-73
2023/11/15 12:31:52;;;;;;;4.23;2.00;;;13.40;99.90;;;;;;5057047;28;20503;-73
2023/11/15 12:34:18;;;;;;;8.93;2.40;;;13.50;99.90;;;;;;5055606;28;20463;-73
2023/11/15 12:36:45;;;;;;;3.60;1.90;;;13.60;99.90;;;;;;5059431;28;20414;-73
2023/11/15 12:39:16;;;;;;;6.10;2.37;;;13.70;99.90;;;;;;5057592;28;20473;-73
2023/11/15 12:41:49;;;;;;;7.20;2.00;;;13.80;99.90;;;;;;5056857;28;20847;-73
2023/11/15 12:44:16;;;;;;;7.60;2.43;;;13.80;99.90;;;;;;5051577;28;20468;-73
2023/11/15 12:46:43;;;;;;;6.60;2.43;;;13.80;99.90;;;;;;5058270;28;20450;-73
2023/11/15 12:49:14;;;;;;;8.00;2.13;;;13.80;99.90;;;;;;5057881;28;20418;-73
2023/11/15 12:51:46;;;;;;;7.77;2.50;;;13.90;99.90;;;;;;5057126;28;21281;-73